CST,Max TemperatureF,Mean TemperatureF,Min TemperatureF,Max Dew PointF,MeanDew PointF,Min DewpointF,Max Humidity, Mean Humidity, Min Humidity, Max Sea Level PressureIn, Mean Sea Level PressureIn, Min Sea Level PressureIn, Max VisibilityMiles, Mean VisibilityMiles, Min VisibilityMiles, Max Wind SpeedMPH, Mean Wind SpeedMPH, Max Gust SpeedMPH,PrecipitationIn, CloudCover, Events, WindDirDegrees
2013-1-1,82,71,60,72,66,61,100,84,66,30.01,29.94,29.81,7,4,0,12,8,,0.00,3,Fog,98
2013-1-2,60,58,57,61,58,54,100,96,82,30.21,30.14,30.10,4,3,1,14,8,,0.00,8,Rain,335
2013-1-3,59,57,55,59,56,54,100,97,88,30.28,30.22,30.17,6,3,1,12,7,,0.51,8,Rain,330
2013-1-4,60,58,55,57,56,54,100,91,88,30.29,30.25,30.20,4,4,2,12,11,,0.00,8,Rain,354
2013-1-5,64,60,55,59,56,52,100,85,73,30.25,30.22,30.18,5,4,1,9,7,,0.00,7,,1
2013-1-6,62,60,59,61,59,57,100,98,88,30.32,30.28,30.22,5,2,1,14,10,,0.15,8,Rain,346
2013-1-7,68,62,57,55,54,52,88,71,60,30.77,30.19,29.95,7,6,2,14,7,,0.12,7,,314
2013-1-8,68,64,60,63,59,57,94,83,73,29.98,29.91,29.83,6,4,2,8,2,,0.00,8,,33
2013-1-9,77,70,64,70,66,61,100,85,74,29.99,29.88,29.82,5,4,0,14,7,,0.00,7,,43
2013-1-10,73,70,66,66,64,61,94,84,73,30.12,30.06,30.00,5,4,1,14,9,,0.00,8,,350
2013-1-11,77,72,68,72,68,66,94,83,73,30.05,29.95,29.85,5,4,4,9,4,,0.00,8,,69
2013-1-12,84,76,68,75,69,66,94,77,58,29.93,29.84,29.77,5,4,2,9,2,,0.00,1,,77
2013-1-13,82,73,64,72,67,59,94,83,66,30.03,29.90,29.78,4,4,3,18,8,,0.00,7,,358
2013-1-14,68,66,64,57,56,54,77,70,60,30.08,30.05,29.98,5,5,4,9,4,,0.00,8,,29
2013-1-15,71,66,62,63,59,55,94,81,64,30.02,29.97,29.85,6,5,3,12,5,,0.05,8,,24
2013-1-16,57,55,53,54,49,41,100,84,55,30.41,30.34,30.22,6,3,0,17,13,,0.12,8,,343
2013-1-17,66,58,51,48,46,41,88,64,42,30.52,30.44,30.37,6,5,4,14,9,,0.00,8,,315
2013-1-18,73,62,50,50,44,36,88,52,25,30.49,30.40,30.29,7,6,4,14,7,,0.00,5,,318
2013-1-19,77,66,55,54,49,45,82,55,36,30.31,30.23,30.09,7,7,6,12,3,,0.00,2,,97
2013-1-20,78,66,53,61,55,46,88,65,44,30.27,30.17,30.06,7,6,6,7,1,,0.00,5,,76
2013-1-21,73,66,60,63,60,57,94,78,60,30.43,30.16,30.08,7,5,3,8,2,,0.00,8,,116
2013-1-22,75,70,64,66,63,61,100,86,61,30.26,30.20,30.12,6,4,2,8,5,,0.15,8,,281
2013-1-23,73,68,64,66,65,63,100,88,73,30.36,30.29,30.24,5,4,0,9,4,,0.00,8,Fog-Rain,214
2013-1-24,80,70,60,68,62,46,100,78,43,30.36,30.27,30.19,6,3,0,12,5,,0.12,2,Fog,137
2013-1-25,80,71,62,64,62,57,100,78,54,30.29,30.19,30.08,6,4,0,9,5,,0.00,2,Fog,92
2013-1-26,80,70,60,64,61,57,88,70,54,30.19,30.10,29.96,7,6,4,12,5,,0.00,1,,98
2013-1-27,82,74,66,70,65,63,94,74,54,30.14,30.05,29.96,6,5,3,12,3,,0.00,4,,79
2013-1-28,84,76,68,66,65,63,94,73,51,30.08,30.02,29.95,6,4,2,12,7,,0.00,4,,316
2013-1-29,89,79,69,70,67,61,100,70,52,29.97,29.86,29.75,6,5,3,12,7,,0.00,2,,129
2013-1-30,78,72,66,68,60,50,100,73,47,30.27,30.00,29.80,6,3,0,17,6,29,0.00,5,Fog,16
2013-1-31,69,64,60,59,58,55,94,78,68,30.35,30.29,30.24,5,4,3,10,5,,0.00,8,,163